sensor_id;sensor_type;location;lat;lon;timestamp;P1;durP1;ratioP1;P2;durP2;ratioP2
13611;SDS011;6877;51.436;6.774;2022-09-06T00:03:18;16.52;;;6.35;;
13611;SDS011;6877;51.436;6.774;2022-09-06T00:13:08;12.10;;;5.72;;
13611;SDS011;6877;51.436;6.774;2022-09-06T00:15:41;13.13;;;6.15;;
13611;SDS011;6877;51.436;6.774;2022-09-06T00:21:28;9.73;;;4.90;;
13611;SDS011;6877;51.436;6.774;2022-09-06T00:24:01;11.25;;;4.60;;
13611;SDS011;6877;51.436;6.774;2022-09-06T00:26:34;9.60;;;5.65;;
13611;SDS011;6877;51.436;6.774;2022-09-06T00:29:06;7.70;;;4.65;;
13611;SDS011;6877;51.436;6.774;2022-09-06T00:31:41;8.65;;;5.10;;
13611;SDS011;6877;51.436;6.774;2022-09-06T01:03:49;10.52;;;4.10;;
13611;SDS011;6877;51.436;6.774;2022-09-06T01:20:59;5.50;;;3.83;;
13611;SDS011;6877;51.436;6.774;2022-09-06T01:35:10;5.28;;;3.78;;
13611;SDS011;6877;51.436;6.774;2022-09-06T01:38:15;14.25;;;4.20;;
13611;SDS011;6877;51.436;6.774;2022-09-06T01:41:19;9.20;;;4.47;;
13611;SDS011;6877;51.436;6.774;2022-09-06T01:46:44;5.68;;;3.70;;
13611;SDS011;6877;51.436;6.774;2022-09-06T02:21:09;7.65;;;4.32;;
13611;SDS011;6877;51.436;6.774;2022-09-06T02:27:39;6.10;;;4.57;;
13611;SDS011;6877;51.436;6.774;2022-09-06T02:30:52;6.78;;;4.05;;
13611;SDS011;6877;51.436;6.774;2022-09-06T02:50:51;5.25;;;4.45;;
13611;SDS011;6877;51.436;6.774;2022-09-06T03:16:01;7.30;;;4.25;;
13611;SDS011;6877;51.436;6.774;2022-09-06T03:19:15;8.32;;;5.07;;
13611;SDS011;6877;51.436;6.774;2022-09-06T03:23:05;5.78;;;4.47;;
13611;SDS011;6877;51.436;6.774;2022-09-06T03:26:41;4.85;;;4.03;;
13611;SDS011;6877;51.436;6.774;2022-09-06T03:29:31;5.20;;;4.03;;
13611;SDS011;6877;51.436;6.774;2022-09-06T03:55:50;14.25;;;4.50;;
13611;SDS011;6877;51.436;6.774;2022-09-06T03:58:44;5.70;;;5.10;;
13611;SDS011;6877;51.436;6.774;2022-09-06T04:01:16;7.82;;;5.15;;
13611;SDS011;6877;51.436;6.774;2022-09-06T04:11:47;6.55;;;4.15;;
13611;SDS011;6877;51.436;6.774;2022-09-06T04:18:03;5.97;;;4.53;;
13611;SDS011;6877;51.436;6.774;2022-09-06T04:21:39;5.57;;;3.90;;
13611;SDS011;6877;51.436;6.774;2022-09-06T04:24:35;7.95;;;4.95;;
13611;SDS011;6877;51.436;6.774;2022-09-06T04:27:01;11.40;;;6.00;;
13611;SDS011;6877;51.436;6.774;2022-09-06T04:46:19;12.95;;;6.03;;
13611;SDS011;6877;51.436;6.774;2022-09-06T04:48:54;9.50;;;6.50;;
13611;SDS011;6877;51.436;6.774;2022-09-06T05:17:20;8.43;;;6.47;;
13611;SDS011;6877;51.436;6.774;2022-09-06T05:20:33;11.48;;;6.95;;
13611;SDS011;6877;51.436;6.774;2022-09-06T05:23:07;11.77;;;6.30;;
13611;SDS011;6877;51.436;6.774;2022-09-06T05:25:57;9.15;;;6.25;;
13611;SDS011;6877;51.436;6.774;2022-09-06T05:28:29;18.33;;;7.13;;
13611;SDS011;6877;51.436;6.774;2022-09-06T05:35:36;12.27;;;7.40;;
13611;SDS011;6877;51.436;6.774;2022-09-06T05:41:41;14.02;;;6.65;;
13611;SDS011;6877;51.436;6.774;2022-09-06T05:48:09;9.27;;;6.93;;
13611;SDS011;6877;51.436;6.774;2022-09-06T05:58:10;12.38;;;7.05;;
13611;SDS011;6877;51.436;6.774;2022-09-06T06:01:11;11.82;;;7.22;;
13611;SDS011;6877;51.436;6.774;2022-09-06T06:03:50;12.65;;;7.40;;
13611;SDS011;6877;51.436;6.774;2022-09-06T06:06:29;12.00;;;7.75;;
13611;SDS011;6877;51.436;6.774;2022-09-06T06:09:03;12.35;;;8.02;;
13611;SDS011;6877;51.436;6.774;2022-09-06T06:11:35;10.60;;;7.78;;
13611;SDS011;6877;51.436;6.774;2022-09-06T06:14:07;10.15;;;7.18;;
13611;SDS011;6877;51.436;6.774;2022-09-06T06:16:48;15.27;;;8.20;;
13611;SDS011;6877;51.436;6.774;2022-09-06T06:19:46;9.38;;;6.18;;
13611;SDS011;6877;51.436;6.774;2022-09-06T06:30:00;8.95;;;6.40;;
13611;SDS011;6877;51.436;6.774;2022-09-06T06:32:27;13.57;;;7.57;;
13611;SDS011;6877;51.436;6.774;2022-09-06T06:38:06;14.93;;;7.93;;
13611;SDS011;6877;51.436;6.774;2022-09-06T06:40:53;14.80;;;7.30;;
13611;SDS011;6877;51.436;6.774;2022-09-06T06:43:28;16.17;;;7.03;;
13611;SDS011;6877;51.436;6.774;2022-09-06T06:47:16;16.02;;;7.70;;
13611;SDS011;6877;51.436;6.774;2022-09-06T06:53:26;8.93;;;6.90;;
13611;SDS011;6877;51.436;6.774;2022-09-06T07:00:04;8.73;;;6.03;;
13611;SDS011;6877;51.436;6.774;2022-09-06T07:03:05;7.88;;;5.85;;
13611;SDS011;6877;51.436;6.774;2022-09-06T07:12:37;10.00;;;6.82;;
13611;SDS011;6877;51.436;6.774;2022-09-06T07:15:51;10.50;;;6.78;;
13611;SDS011;6877;51.436;6.774;2022-09-06T07:22:32;10.52;;;6.03;;
13611;SDS011;6877;51.436;6.774;2022-09-06T07:26:15;11.73;;;5.72;;
13611;SDS011;6877;51.436;6.774;2022-09-06T07:29:11;12.43;;;5.80;;
13611;SDS011;6877;51.436;6.774;2022-09-06T07:31:47;9.45;;;4.70;;
13611;SDS011;6877;51.436;6.774;2022-09-06T07:34:19;8.65;;;4.95;;
13611;SDS011;6877;51.436;6.774;2022-09-06T07:36:52;11.93;;;4.82;;
13611;SDS011;6877;51.436;6.774;2022-09-06T07:43:12;10.00;;;5.35;;
13611;SDS011;6877;51.436;6.774;2022-09-06T07:53:37;9.38;;;4.10;;
13611;SDS011;6877;51.436;6.774;2022-09-06T07:56:58;8.35;;;3.78;;
13611;SDS011;6877;51.436;6.774;2022-09-06T07:59:30;11.68;;;4.55;;
13611;SDS011;6877;51.436;6.774;2022-09-06T08:02:41;6.85;;;3.42;;
13611;SDS011;6877;51.436;6.774;2022-09-06T08:08:43;4.30;;;3.05;;
13611;SDS011;6877;51.436;6.774;2022-09-06T08:11:28;7.72;;;3.25;;
13611;SDS011;6877;51.436;6.774;2022-09-06T08:14:11;14.15;;;2.63;;
13611;SDS011;6877;51.436;6.774;2022-09-06T08:20:18;5.53;;;2.13;;
13611;SDS011;6877;51.436;6.774;2022-09-06T08:23:07;3.92;;;2.10;;
13611;SDS011;6877;51.436;6.774;2022-09-06T08:29:50;2.30;;;2.00;;
13611;SDS011;6877;51.436;6.774;2022-09-06T08:32:24;3.70;;;1.77;;
13611;SDS011;6877;51.436;6.774;2022-09-06T08:36:24;2.70;;;1.90;;
13611;SDS011;6877;51.436;6.774;2022-09-06T08:42:21;1.98;;;1.75;;
13611;SDS011;6877;51.436;6.774;2022-09-06T08:44:51;2.25;;;1.70;;
13611;SDS011;6877;51.436;6.774;2022-09-06T08:47:59;2.95;;;2.00;;
13611;SDS011;6877;51.436;6.774;2022-09-06T08:58:04;5.88;;;1.73;;
13611;SDS011;6877;51.436;6.774;2022-09-06T09:00:52;2.53;;;1.70;;
13611;SDS011;6877;51.436;6.774;2022-09-06T09:03:46;4.60;;;1.38;;
13611;SDS011;6877;51.436;6.774;2022-09-06T09:06:21;9.88;;;1.80;;
13611;SDS011;6877;51.436;6.774;2022-09-06T09:09:04;12.98;;;2.00;;
13611;SDS011;6877;51.436;6.774;2022-09-06T09:11:44;5.38;;;2.00;;
13611;SDS011;6877;51.436;6.774;2022-09-06T09:14:25;3.78;;;1.98;;
13611;SDS011;6877;51.436;6.774;2022-09-06T09:20:32;2.97;;;1.80;;
13611;SDS011;6877;51.436;6.774;2022-09-06T09:23:56;3.00;;;1.92;;
13611;SDS011;6877;51.436;6.774;2022-09-06T09:30:18;7.30;;;1.60;;
13611;SDS011;6877;51.436;6.774;2022-09-06T09:32:57;3.75;;;1.70;;
13611;SDS011;6877;51.436;6.774;2022-09-06T09:35:51;3.50;;;1.70;;
13611;SDS011;6877;51.436;6.774;2022-09-06T09:38:31;4.97;;;2.13;;
13611;SDS011;6877;51.436;6.774;2022-09-06T09:44:21;2.45;;;1.50;;
13611;SDS011;6877;51.436;6.774;2022-09-06T09:46:58;5.03;;;1.60;;
13611;SDS011;6877;51.436;6.774;2022-09-06T09:49:43;4.72;;;1.85;;
13611;SDS011;6877;51.436;6.774;2022-09-06T09:58:33;4.65;;;1.83;;
13611;SDS011;6877;51.436;6.774;2022-09-06T10:01:08;6.80;;;2.00;;
13611;SDS011;6877;51.436;6.774;2022-09-06T10:03:44;2.10;;;1.45;;
13611;SDS011;6877;51.436;6.774;2022-09-06T10:06:36;3.40;;;1.50;;
13611;SDS011;6877;51.436;6.774;2022-09-06T10:09:38;1.77;;;1.35;;
13611;SDS011;6877;51.436;6.774;2022-09-06T10:12:46;3.50;;;1.60;;
13611;SDS011;6877;51.436;6.774;2022-09-06T10:15:31;3.78;;;1.80;;
13611;SDS011;6877;51.436;6.774;2022-09-06T10:21:24;3.90;;;1.58;;
13611;SDS011;6877;51.436;6.774;2022-09-06T10:27:24;4.70;;;1.85;;
13611;SDS011;6877;51.436;6.774;2022-09-06T10:30:26;2.50;;;1.73;;
13611;SDS011;6877;51.436;6.774;2022-09-06T10:33:18;6.47;;;1.98;;
13611;SDS011;6877;51.436;6.774;2022-09-06T10:36:36;6.32;;;2.53;;
13611;SDS011;6877;51.436;6.774;2022-09-06T10:52:46;8.07;;;2.10;;
13611;SDS011;6877;51.436;6.774;2022-09-06T10:55:28;8.32;;;2.35;;
13611;SDS011;6877;51.436;6.774;2022-09-06T10:58:07;7.43;;;2.65;;
13611;SDS011;6877;51.436;6.774;2022-09-06T11:01:26;4.07;;;2.22;;
13611;SDS011;6877;51.436;6.774;2022-09-06T11:04:38;4.13;;;2.00;;
13611;SDS011;6877;51.436;6.774;2022-09-06T11:07:30;2.70;;;1.50;;
13611;SDS011;6877;51.436;6.774;2022-09-06T11:30:04;3.58;;;2.30;;
13611;SDS011;6877;51.436;6.774;2022-09-06T11:32:38;6.97;;;3.03;;
13611;SDS011;6877;51.436;6.774;2022-09-06T11:40:46;3.45;;;2.13;;
13611;SDS011;6877;51.436;6.774;2022-09-06T11:49:09;8.25;;;2.58;;
13611;SDS011;6877;51.436;6.774;2022-09-06T11:55:30;7.38;;;2.17;;
13611;SDS011;6877;51.436;6.774;2022-09-06T12:14:35;3.65;;;2.30;;
13611;SDS011;6877;51.436;6.774;2022-09-06T12:17:49;4.78;;;2.45;;
13611;SDS011;6877;51.436;6.774;2022-09-06T12:36:19;8.55;;;3.42;;
13611;SDS011;6877;51.436;6.774;2022-09-06T12:39:09;4.30;;;3.40;;
13611;SDS011;6877;51.436;6.774;2022-09-06T12:41:45;5.10;;;3.40;;
13611;SDS011;6877;51.436;6.774;2022-09-06T12:45:14;5.30;;;3.17;;
13611;SDS011;6877;51.436;6.774;2022-09-06T12:47:43;5.65;;;2.78;;
13611;SDS011;6877;51.436;6.774;2022-09-06T12:54:20;3.15;;;2.50;;
13611;SDS011;6877;51.436;6.774;2022-09-06T13:00:13;9.25;;;2.78;;
13611;SDS011;6877;51.436;6.774;2022-09-06T13:03:30;11.43;;;5.03;;
13611;SDS011;6877;51.436;6.774;2022-09-06T13:09:28;5.38;;;2.88;;
13611;SDS011;6877;51.436;6.774;2022-09-06T13:13:02;6.15;;;2.53;;
13611;SDS011;6877;51.436;6.774;2022-09-06T13:19:38;4.05;;;2.03;;
13611;SDS011;6877;51.436;6.774;2022-09-06T13:26:50;3.30;;;2.05;;
13611;SDS011;6877;51.436;6.774;2022-09-06T13:37:12;6.95;;;3.03;;
13611;SDS011;6877;51.436;6.774;2022-09-06T13:43:09;4.55;;;2.10;;
13611;SDS011;6877;51.436;6.774;2022-09-06T13:46:33;4.18;;;1.98;;
13611;SDS011;6877;51.436;6.774;2022-09-06T13:52:36;7.30;;;2.42;;
13611;SDS011;6877;51.436;6.774;2022-09-06T13:55:17;6.45;;;2.65;;
13611;SDS011;6877;51.436;6.774;2022-09-06T13:58:00;12.98;;;2.72;;
13611;SDS011;6877;51.436;6.774;2022-09-06T14:00:39;8.05;;;2.47;;
13611;SDS011;6877;51.436;6.774;2022-09-06T14:03:37;3.38;;;1.63;;
13611;SDS011;6877;51.436;6.774;2022-09-06T14:06:12;3.05;;;1.65;;
13611;SDS011;6877;51.436;6.774;2022-09-06T14:08:47;2.05;;;1.70;;
13611;SDS011;6877;51.436;6.774;2022-09-06T14:11:27;4.30;;;2.17;;
13611;SDS011;6877;51.436;6.774;2022-09-06T14:17:12;4.47;;;1.77;;
13611;SDS011;6877;51.436;6.774;2022-09-06T14:19:56;2.15;;;1.58;;
13611;SDS011;6877;51.436;6.774;2022-09-06T14:23:11;10.95;;;2.25;;
13611;SDS011;6877;51.436;6.774;2022-09-06T14:25:46;3.45;;;1.67;;
13611;SDS011;6877;51.436;6.774;2022-09-06T14:35:00;2.15;;;1.92;;
13611;SDS011;6877;51.436;6.774;2022-09-06T14:37:42;5.85;;;2.22;;
13611;SDS011;6877;51.436;6.774;2022-09-06T14:46:39;4.82;;;2.08;;
13611;SDS011;6877;51.436;6.774;2022-09-06T14:49:37;5.05;;;2.28;;
13611;SDS011;6877;51.436;6.774;2022-09-06T14:52:42;2.72;;;1.75;;
13611;SDS011;6877;51.436;6.774;2022-09-06T14:55:27;8.05;;;1.63;;
13611;SDS011;6877;51.436;6.774;2022-09-06T14:59:01;2.17;;;1.73;;
13611;SDS011;6877;51.436;6.774;2022-09-06T15:01:50;2.35;;;1.25;;
13611;SDS011;6877;51.436;6.774;2022-09-06T15:04:22;3.92;;;1.23;;
13611;SDS011;6877;51.436;6.774;2022-09-06T15:07:28;3.70;;;1.52;;
13611;SDS011;6877;51.436;6.774;2022-09-06T15:10:33;5.05;;;1.63;;
13611;SDS011;6877;51.436;6.774;2022-09-06T15:13:27;1.55;;;1.40;;
13611;SDS011;6877;51.436;6.774;2022-09-06T15:16:33;3.17;;;1.40;;
13611;SDS011;6877;51.436;6.774;2022-09-06T15:19:48;5.68;;;1.88;;
13611;SDS011;6877;51.436;6.774;2022-09-06T15:29:59;5.10;;;1.80;;
13611;SDS011;6877;51.436;6.774;2022-09-06T15:32:36;3.38;;;1.98;;
13611;SDS011;6877;51.436;6.774;2022-09-06T15:38:52;1.60;;;1.50;;
13611;SDS011;6877;51.436;6.774;2022-09-06T15:41:53;6.82;;;1.90;;
13611;SDS011;6877;51.436;6.774;2022-09-06T15:44:37;6.50;;;2.20;;
13611;SDS011;6877;51.436;6.774;2022-09-06T15:47:05;7.10;;;2.67;;
13611;SDS011;6877;51.436;6.774;2022-09-06T15:57:20;3.38;;;1.80;;
13611;SDS011;6877;51.436;6.774;2022-09-06T16:00:00;7.65;;;2.15;;
13611;SDS011;6877;51.436;6.774;2022-09-06T16:03:08;5.07;;;1.85;;
13611;SDS011;6877;51.436;6.774;2022-09-06T16:06:00;2.63;;;2.10;;
13611;SDS011;6877;51.436;6.774;2022-09-06T16:09:17;6.80;;;2.00;;
13611;SDS011;6877;51.436;6.774;2022-09-06T16:15:06;2.75;;;1.63;;
13611;SDS011;6877;51.436;6.774;2022-09-06T16:21:42;9.90;;;1.92;;
13611;SDS011;6877;51.436;6.774;2022-09-06T16:24:14;4.00;;;2.08;;
13611;SDS011;6877;51.436;6.774;2022-09-06T16:26:51;3.53;;;2.17;;
13611;SDS011;6877;51.436;6.774;2022-09-06T16:32:26;3.00;;;2.17;;
13611;SDS011;6877;51.436;6.774;2022-09-06T16:34:58;9.90;;;1.80;;
13611;SDS011;6877;51.436;6.774;2022-09-06T16:44:08;5.80;;;2.88;;
13611;SDS011;6877;51.436;6.774;2022-09-06T16:46:46;3.08;;;2.20;;
13611;SDS011;6877;51.436;6.774;2022-09-06T16:49:15;4.80;;;2.28;;
13611;SDS011;6877;51.436;6.774;2022-09-06T16:51:48;4.63;;;2.33;;
13611;SDS011;6877;51.436;6.774;2022-09-06T16:54:33;2.20;;;2.00;;
13611;SDS011;6877;51.436;6.774;2022-09-06T16:57:39;3.08;;;2.17;;
13611;SDS011;6877;51.436;6.774;2022-09-06T17:03:52;3.28;;;1.83;;
13611;SDS011;6877;51.436;6.774;2022-09-06T17:06:22;5.38;;;2.10;;
13611;SDS011;6877;51.436;6.774;2022-09-06T17:09:23;2.10;;;1.90;;
13611;SDS011;6877;51.436;6.774;2022-09-06T17:12:25;3.78;;;1.92;;
13611;SDS011;6877;51.436;6.774;2022-09-06T17:14:59;5.70;;;2.05;;
13611;SDS011;6877;51.436;6.774;2022-09-06T17:17:31;2.88;;;2.10;;
13611;SDS011;6877;51.436;6.774;2022-09-06T17:20:03;5.63;;;1.75;;
13611;SDS011;6877;51.436;6.774;2022-09-06T17:22:41;2.58;;;1.67;;
13611;SDS011;6877;51.436;6.774;2022-09-06T17:29:03;2.78;;;1.50;;
13611;SDS011;6877;51.436;6.774;2022-09-06T17:32:16;1.88;;;1.70;;
13611;SDS011;6877;51.436;6.774;2022-09-06T17:34:47;3.22;;;1.95;;
13611;SDS011;6877;51.436;6.774;2022-09-06T17:37:46;1.98;;;1.73;;
13611;SDS011;6877;51.436;6.774;2022-09-06T17:41:03;3.58;;;2.25;;
13611;SDS011;6877;51.436;6.774;2022-09-06T17:43:35;2.25;;;2.03;;
13611;SDS011;6877;51.436;6.774;2022-09-06T17:46:33;2.20;;;1.73;;
13611;SDS011;6877;51.436;6.774;2022-09-06T17:49:21;2.25;;;1.83;;
13611;SDS011;6877;51.436;6.774;2022-09-06T17:51:53;2.25;;;1.60;;
13611;SDS011;6877;51.436;6.774;2022-09-06T17:54:23;2.80;;;1.50;;
13611;SDS011;6877;51.436;6.774;2022-09-06T17:56:58;5.43;;;1.92;;
13611;SDS011;6877;51.436;6.774;2022-09-06T17:59:48;2.58;;;1.70;;
13611;SDS011;6877;51.436;6.774;2022-09-06T18:02:36;2.30;;;1.85;;
13611;SDS011;6877;51.436;6.774;2022-09-06T18:05:09;1.90;;;1.73;;
13611;SDS011;6877;51.436;6.774;2022-09-06T18:07:41;2.20;;;1.67;;
13611;SDS011;6877;51.436;6.774;2022-09-06T18:10:13;4.50;;;2.35;;
13611;SDS011;6877;51.436;6.774;2022-09-06T18:12:53;2.80;;;2.13;;
13611;SDS011;6877;51.436;6.774;2022-09-06T18:15:31;4.45;;;2.00;;
13611;SDS011;6877;51.436;6.774;2022-09-06T18:18:08;3.63;;;2.55;;
13611;SDS011;6877;51.436;6.774;2022-09-06T18:21:02;3.55;;;2.63;;
13611;SDS011;6877;51.436;6.774;2022-09-06T18:24:13;4.82;;;2.78;;
13611;SDS011;6877;51.436;6.774;2022-09-06T18:26:45;9.38;;;3.03;;
13611;SDS011;6877;51.436;6.774;2022-09-06T18:29:42;3.35;;;2.30;;
13611;SDS011;6877;51.436;6.774;2022-09-06T18:32:27;10.80;;;2.78;;
13611;SDS011;6877;51.436;6.774;2022-09-06T18:34:58;5.82;;;2.55;;
13611;SDS011;6877;51.436;6.774;2022-09-06T18:37:32;4.32;;;2.28;;
13611;SDS011;6877;51.436;6.774;2022-09-06T18:40:06;6.18;;;2.47;;
13611;SDS011;6877;51.436;6.774;2022-09-06T18:42:43;4.47;;;2.05;;
13611;SDS011;6877;51.436;6.774;2022-09-06T18:45:18;2.33;;;1.85;;
13611;SDS011;6877;51.436;6.774;2022-09-06T18:47:54;2.60;;;1.98;;
13611;SDS011;6877;51.436;6.774;2022-09-06T18:50:25;2.60;;;2.13;;
13611;SDS011;6877;51.436;6.774;2022-09-06T18:53:32;4.13;;;2.35;;
13611;SDS011;6877;51.436;6.774;2022-09-06T18:56:01;5.45;;;3.47;;
13611;SDS011;6877;51.436;6.774;2022-09-06T18:58:33;6.18;;;3.35;;
13611;SDS011;6877;51.436;6.774;2022-09-06T19:01:06;6.35;;;2.95;;
13611;SDS011;6877;51.436;6.774;2022-09-06T19:03:40;6.30;;;2.30;;
13611;SDS011;6877;51.436;6.774;2022-09-06T19:06:52;10.57;;;2.90;;
13611;SDS011;6877;51.436;6.774;2022-09-06T19:09:24;8.25;;;2.85;;
13611;SDS011;6877;51.436;6.774;2022-09-06T19:12:05;5.63;;;2.47;;
13611;SDS011;6877;51.436;6.774;2022-09-06T19:14:33;10.38;;;3.17;;
13611;SDS011;6877;51.436;6.774;2022-09-06T19:17:05;4.60;;;2.63;;
13611;SDS011;6877;51.436;6.774;2022-09-06T19:19:36;4.95;;;2.70;;
13611;SDS011;6877;51.436;6.774;2022-09-06T19:22:11;4.47;;;2.25;;
13611;SDS011;6877;51.436;6.774;2022-09-06T19:24:43;3.38;;;2.90;;
13611;SDS011;6877;51.436;6.774;2022-09-06T19:27:15;5.60;;;2.92;;
13611;SDS011;6877;51.436;6.774;2022-09-06T19:29:47;4.00;;;2.60;;
13611;SDS011;6877;51.436;6.774;2022-09-06T19:32:19;4.00;;;2.90;;
13611;SDS011;6877;51.436;6.774;2022-09-06T19:34:54;4.43;;;2.70;;
13611;SDS011;6877;51.436;6.774;2022-09-06T19:37:31;4.45;;;2.90;;
13611;SDS011;6877;51.436;6.774;2022-09-06T19:39:58;10.10;;;3.00;;
13611;SDS011;6877;51.436;6.774;2022-09-06T19:42:25;4.43;;;3.08;;
13611;SDS011;6877;51.436;6.774;2022-09-06T19:44:57;6.45;;;2.85;;
13611;SDS011;6877;51.436;6.774;2022-09-06T19:47:29;3.92;;;3.13;;
13611;SDS011;6877;51.436;6.774;2022-09-06T19:50:00;5.28;;;3.55;;
13611;SDS011;6877;51.436;6.774;2022-09-06T19:52:42;4.60;;;3.22;;
13611;SDS011;6877;51.436;6.774;2022-09-06T19:55:13;6.75;;;2.70;;
13611;SDS011;6877;51.436;6.774;2022-09-06T19:57:45;4.40;;;2.90;;
13611;SDS011;6877;51.436;6.774;2022-09-06T20:00:12;2.83;;;2.40;;
13611;SDS011;6877;51.436;6.774;2022-09-06T20:02:42;4.70;;;3.03;;
13611;SDS011;6877;51.436;6.774;2022-09-06T20:05:23;8.82;;;3.55;;
13611;SDS011;6877;51.436;6.774;2022-09-06T20:07:56;4.93;;;3.13;;
13611;SDS011;6877;51.436;6.774;2022-09-06T20:10:27;7.82;;;3.08;;
13611;SDS011;6877;51.436;6.774;2022-09-06T20:13:08;5.90;;;3.10;;
13611;SDS011;6877;51.436;6.774;2022-09-06T20:15:40;6.28;;;3.05;;
13611;SDS011;6877;51.436;6.774;2022-09-06T20:18:12;5.32;;;3.50;;
13611;SDS011;6877;51.436;6.774;2022-09-06T20:20:54;7.53;;;3.22;;
13611;SDS011;6877;51.436;6.774;2022-09-06T20:23:40;4.13;;;3.28;;
13611;SDS011;6877;51.436;6.774;2022-09-06T20:26:12;5.63;;;3.00;;
13611;SDS011;6877;51.436;6.774;2022-09-06T20:28:45;4.10;;;3.28;;
13611;SDS011;6877;51.436;6.774;2022-09-06T20:31:17;4.55;;;3.45;;
13611;SDS011;6877;51.436;6.774;2022-09-06T20:33:50;3.78;;;2.75;;
13611;SDS011;6877;51.436;6.774;2022-09-06T20:36:22;11.30;;;4.60;;
13611;SDS011;6877;51.436;6.774;2022-09-06T20:42:27;7.63;;;4.10;;
13611;SDS011;6877;51.436;6.774;2022-09-06T20:44:54;7.00;;;4.10;;
13611;SDS011;6877;51.436;6.774;2022-09-06T20:47:29;5.15;;;3.20;;
13611;SDS011;6877;51.436;6.774;2022-09-06T20:50:01;10.35;;;3.63;;
13611;SDS011;6877;51.436;6.774;2022-09-06T20:52:33;5.43;;;3.83;;
13611;SDS011;6877;51.436;6.774;2022-09-06T20:55:14;5.07;;;3.28;;
13611;SDS011;6877;51.436;6.774;2022-09-06T20:57:51;4.00;;;2.90;;
13611;SDS011;6877;51.436;6.774;2022-09-06T21:00:23;3.55;;;2.80;;
13611;SDS011;6877;51.436;6.774;2022-09-06T21:02:55;12.25;;;4.60;;
13611;SDS011;6877;51.436;6.774;2022-09-06T21:05:30;6.65;;;3.33;;
13611;SDS011;6877;51.436;6.774;2022-09-06T21:08:08;5.32;;;3.38;;
13611;SDS011;6877;51.436;6.774;2022-09-06T21:10:56;8.52;;;3.65;;
13611;SDS011;6877;51.436;6.774;2022-09-06T21:13:29;5.95;;;3.40;;
13611;SDS011;6877;51.436;6.774;2022-09-06T21:16:05;3.80;;;2.80;;
13611;SDS011;6877;51.436;6.774;2022-09-06T21:18:54;10.73;;;3.53;;
13611;SDS011;6877;51.436;6.774;2022-09-06T21:21:42;6.10;;;3.22;;
13611;SDS011;6877;51.436;6.774;2022-09-06T21:24:12;4.60;;;2.78;;
13611;SDS011;6877;51.436;6.774;2022-09-06T21:27:00;5.30;;;2.78;;
13611;SDS011;6877;51.436;6.774;2022-09-06T21:32:37;6.10;;;2.50;;
13611;SDS011;6877;51.436;6.774;2022-09-06T21:35:04;4.47;;;2.75;;
13611;SDS011;6877;51.436;6.774;2022-09-06T21:37:45;8.57;;;2.58;;
13611;SDS011;6877;51.436;6.774;2022-09-06T21:40:12;5.68;;;2.67;;
13611;SDS011;6877;51.436;6.774;2022-09-06T21:42:44;4.72;;;2.60;;
13611;SDS011;6877;51.436;6.774;2022-09-06T21:45:18;3.88;;;2.90;;
13611;SDS011;6877;51.436;6.774;2022-09-06T21:48:09;2.30;;;2.10;;
13611;SDS011;6877;51.436;6.774;2022-09-06T21:50:57;6.35;;;2.70;;
13611;SDS011;6877;51.436;6.774;2022-09-06T21:53:49;4.57;;;2.60;;
13611;SDS011;6877;51.436;6.774;2022-09-06T21:56:28;5.28;;;2.63;;
13611;SDS011;6877;51.436;6.774;2022-09-06T21:59:00;4.65;;;2.47;;
13611;SDS011;6877;51.436;6.774;2022-09-06T22:02:07;3.38;;;2.55;;
13611;SDS011;6877;51.436;6.774;2022-09-06T22:04:42;4.38;;;2.28;;
13611;SDS011;6877;51.436;6.774;2022-09-06T22:07:29;2.75;;;1.92;;
13611;SDS011;6877;51.436;6.774;2022-09-06T22:11:06;4.07;;;2.35;;
13611;SDS011;6877;51.436;6.774;2022-09-06T22:14:24;4.10;;;2.45;;
13611;SDS011;6877;51.436;6.774;2022-09-06T22:16:56;3.38;;;2.25;;
13611;SDS011;6877;51.436;6.774;2022-09-06T22:20:24;6.15;;;2.72;;
13611;SDS011;6877;51.436;6.774;2022-09-06T22:23:29;6.50;;;2.30;;
13611;SDS011;6877;51.436;6.774;2022-09-06T22:26:08;4.43;;;2.00;;
13611;SDS011;6877;51.436;6.774;2022-09-06T22:28:42;6.60;;;2.40;;
13611;SDS011;6877;51.436;6.774;2022-09-06T22:31:24;6.75;;;2.67;;
13611;SDS011;6877;51.436;6.774;2022-09-06T22:34:06;4.57;;;2.45;;
13611;SDS011;6877;51.436;6.774;2022-09-06T22:36:39;3.53;;;2.67;;
13611;SDS011;6877;51.436;6.774;2022-09-06T22:39:11;4.97;;;2.25;;
13611;SDS011;6877;51.436;6.774;2022-09-06T22:41:43;2.97;;;2.00;;
13611;SDS011;6877;51.436;6.774;2022-09-06T22:48:17;2.20;;;2.00;;
13611;SDS011;6877;51.436;6.774;2022-09-06T22:50:47;4.45;;;2.13;;
13611;SDS011;6877;51.436;6.774;2022-09-06T22:53:52;4.35;;;2.30;;
13611;SDS011;6877;51.436;6.774;2022-09-06T22:56:24;2.72;;;2.28;;
13611;SDS011;6877;51.436;6.774;2022-09-06T22:59:06;3.33;;;2.00;;
13611;SDS011;6877;51.436;6.774;2022-09-06T23:01:41;4.32;;;1.90;;
13611;SDS011;6877;51.436;6.774;2022-09-06T23:04:36;6.32;;;2.20;;
13611;SDS011;6877;51.436;6.774;2022-09-06T23:07:17;4.57;;;2.40;;
13611;SDS011;6877;51.436;6.774;2022-09-06T23:09:54;3.33;;;2.22;;
13611;SDS011;6877;51.436;6.774;2022-09-06T23:12:26;2.38;;;1.80;;
13611;SDS011;6877;51.436;6.774;2022-09-06T23:15:12;5.35;;;1.98;;
13611;SDS011;6877;51.436;6.774;2022-09-06T23:17:46;5.18;;;1.75;;
13611;SDS011;6877;51.436;6.774;2022-09-06T23:20:16;3.70;;;2.20;;
13611;SDS011;6877;51.436;6.774;2022-09-06T23:22:51;3.40;;;2.08;;
13611;SDS011;6877;51.436;6.774;2022-09-06T23:29:46;88.93;;;11.23;;
13611;SDS011;6877;51.436;6.774;2022-09-06T23:36:06;66.60;;;7.75;;
13611;SDS011;6877;51.436;6.774;2022-09-06T23:38:43;20.65;;;3.17;;
13611;SDS011;6877;51.436;6.774;2022-09-06T23:41:44;11.32;;;3.72;;
13611;SDS011;6877;51.436;6.774;2022-09-06T23:44:20;4.30;;;2.40;;
13611;SDS011;6877;51.436;6.774;2022-09-06T23:51:21;5.13;;;2.45;;
13611;SDS011;6877;51.436;6.774;2022-09-06T23:54:06;4.97;;;2.10;;
13611;SDS011;6877;51.436;6.774;2022-09-06T23:59:38;5.68;;;2.22;;
